Piedmont Triad International Airport
KGSO : rendu visible

Aérodrome :











RETROUVEZ-NOUS SUR...

 
LOGIN :

S'inscrire | Disclaimer

   EN    FR    IT 

 









Légende :    VFR   VFR Marginal   IFR   IFR Intensif   IFR Très Intensif
Visi : 
Plafond : 
>= 8 km
>= 3000ft
5 à 8 km
1000 à 3000 ft
1500m à 5 km
500 à 1000 ft
800 à 1500m
200 à 500 ft
< 800m
< 200 ft
Symboles :   Orages  Brouillard  Fortes neiges  Fortes précipitations  Vent > 20 kt






- Altitude de l'aérodrome : 925 ft
- Code IATA : GSO


KGSO - Piedmont Triad International

DERNIER METAR :
  • 211554Z 23004KT 10SM FEW150 OVC250 11/02 A3028 RMK AO2 SLP255 T01110017

METARs EXPIRÉS :
  • 211454Z 20008KT 10SM FEW150 BKN250 09/01 A3030 RMK AO2 SLP262 T00940011 51009
  • 211354Z 17006KT 10SM BKN250 06/02 A3029 RMK AO2 SLP258 T00610017

TAF KGSO
Valide du 21 à 12h jusqu'au 22 à 12h UTC


211139Z 2112/2212 12003KT P6SM SCT250
FM211700 22005KT P6SM SCT150 BKN250
FM220100 23006KT P6SM SCT060 BKN150



MET'MAP, la Météo Aéronautique d'un coup d'oeil ! - Copyright ORBIFLY Décembre 2007 - Disclaimer

ORBIFLY MET'MAP TEAM :

Programmation & Développement : Alexandra Zaïnal
Conception & Développement : Baudouin d'Aumeries
Co-Programmation & Développement : Marc-Olivier Méhu
Soutien technique & logistique : Manuel Goepfert

Contact : metmap@orbifly.com




SOURCES & CREDITS :

   NOAA       Earth
Advisory